createdAt,value
2023-05-01T00:00:37.858Z,99270.94
2023-05-01T00:03:04.705Z,99276.83
2023-05-01T00:05:31.773Z,99277.98
2023-05-01T00:07:58.641Z,99279.92
2023-05-01T00:10:25.370Z,99285.45
2023-05-01T00:12:52.011Z,99288.27
2023-05-01T00:15:18.723Z,99288.73
2023-05-01T00:17:45.511Z,99294.89
2023-05-01T00:20:12.602Z,99294.40
2023-05-01T00:22:39.452Z,99297.36
2023-05-01T00:25:06.757Z,99299.05
2023-05-01T00:27:33.421Z,99297.92
2023-05-01T00:30:00.408Z,99296.63
2023-05-01T00:32:27.094Z,99300.81
2023-05-01T00:34:54.473Z,99305.32
2023-05-01T00:37:21.386Z,99303.48
2023-05-01T00:39:48.076Z,99302.11
2023-05-01T00:42:14.779Z,99302.85
2023-05-01T00:44:41.459Z,99304.60
2023-05-01T00:47:08.127Z,99304.20
2023-05-01T00:49:35.296Z,99304.35
2023-05-01T00:52:02.002Z,99303.99
2023-05-01T00:54:29.147Z,99306.24
2023-05-01T00:56:56.088Z,99307.37
2023-05-01T00:59:23.359Z,99307.09
2023-05-01T01:01:52.775Z,99304.88
2023-05-01T01:04:20.654Z,99302.16
2023-05-01T01:07:12.153Z,99304.26
2023-05-01T01:09:39.201Z,99305.09
2023-05-01T01:12:31.206Z,99303.16
2023-05-01T01:15:02.583Z,99302.64
2023-05-01T01:17:37.849Z,99301.29
2023-05-01T01:20:19.365Z,99301.67
2023-05-01T01:22:50.788Z,99296.66
2023-05-01T01:25:26.037Z,99299.08
2023-05-01T01:28:11.637Z,99298.36
2023-05-01T01:31:00.434Z,99297.58
2023-05-01T01:33:59.207Z,99299.48
2023-05-01T01:37:06.497Z,99303.37
2023-05-01T01:39:41.571Z,99309.27
2023-05-01T01:42:09.912Z,99307.92
2023-05-01T01:44:41.979Z,99309.98
2023-05-01T01:47:12.711Z,99317.20
2023-05-01T01:49:42.588Z,99315.63
2023-05-01T01:52:10.438Z,99316.09
2023-05-01T01:54:39.072Z,99323.52
2023-05-01T01:57:07.923Z,99328.82
2023-05-01T01:59:35.349Z,99334.11
2023-05-01T02:02:03.215Z,99333.65
2023-05-01T02:04:30.240Z,99336.55
2023-05-01T02:06:57.876Z,99341.52
2023-05-01T02:09:25.007Z,99337.13
2023-05-01T02:11:51.703Z,99342.02
2023-05-01T02:14:18.658Z,99340.46
2023-05-01T02:16:45.392Z,99350.35
2023-05-01T02:19:13.506Z,99357.60
2023-05-01T02:21:40.328Z,99352.99
2023-05-01T02:24:07.204Z,99351.64
2023-05-01T02:26:43.632Z,99364.74
2023-05-01T02:29:10.878Z,99367.86
2023-05-01T02:31:37.653Z,99367.35
2023-05-01T02:34:04.579Z,99367.27
2023-05-01T02:36:33.605Z,99365.06
2023-05-01T02:39:00.822Z,99375.17
2023-05-01T02:41:28.202Z,99377.46
2023-05-01T02:44:01.707Z,99376.73
2023-05-01T02:46:28.629Z,99381.38
2023-05-01T02:48:55.547Z,99383.84
2023-05-01T02:51:22.281Z,99384.69
2023-05-01T02:53:48.976Z,99390.21
2023-05-01T02:56:19.027Z,99387.89
2023-05-01T02:58:45.717Z,99395.55
2023-05-01T03:01:12.683Z,99395.52
2023-05-01T03:03:39.776Z,99400.27
2023-05-01T03:06:06.448Z,99404.16
2023-05-01T03:08:33.221Z,99410.36
2023-05-01T03:10:59.946Z,99407.85
2023-05-01T03:13:26.870Z,99412.63
2023-05-01T03:15:53.539Z,99409.73
2023-05-01T03:18:20.480Z,99413.80
2023-05-01T03:20:59.304Z,99414.97
2023-05-01T03:23:26.191Z,99421.83
2023-05-01T03:25:52.832Z,99424.60
2023-05-01T03:28:20.842Z,99424.51
2023-05-01T03:30:47.894Z,99426.71
2023-05-01T03:33:15.255Z,99428.75
2023-05-01T03:35:42.136Z,99429.44
2023-05-01T03:38:09.248Z,99429.90
2023-05-01T03:41:08.606Z,99431.70
2023-05-01T03:43:58.416Z,99433.35
2023-05-01T03:46:30.428Z,99433.13
2023-05-01T03:48:57.329Z,99437.87
2023-05-01T03:51:24.480Z,99443.48
2023-05-01T03:53:52.378Z,99441.92
2023-05-01T03:56:19.234Z,99445.80
2023-05-01T03:58:47.076Z,99444.39
2023-05-01T04:01:14.640Z,99445.42
2023-05-01T04:03:42.956Z,99447.75
2023-05-01T04:06:10.372Z,99449.05
2023-05-01T04:08:37.107Z,99450.93
2023-05-01T04:11:03.880Z,99450.80
2023-05-01T04:13:31.245Z,99443.95
2023-05-01T04:15:59.529Z,99446.89
2023-05-01T04:18:26.892Z,99442.16
2023-05-01T04:20:54.038Z,99445.39
2023-05-01T04:23:22.086Z,99443.77
2023-05-01T04:25:50.885Z,99446.73
2023-05-01T04:28:18.054Z,99446.41
2023-05-01T04:30:44.811Z,99443.00
2023-05-01T04:33:11.832Z,99445.84
2023-05-01T04:35:39.394Z,99450.59
2023-05-01T04:38:06.845Z,99452.06
2023-05-01T04:40:34.208Z,99453.23
2023-05-01T04:43:00.891Z,99456.50
2023-05-01T04:45:27.635Z,99460.23
2023-05-01T04:47:54.706Z,99457.90
2023-05-01T04:50:21.928Z,99462.41
2023-05-01T04:52:48.686Z,99466.82
2023-05-01T04:55:15.680Z,99471.63
2023-05-01T04:57:59.714Z,99472.86
2023-05-01T05:00:28.172Z,99481.23
2023-05-01T05:02:56.101Z,99478.64
2023-05-01T05:05:23.522Z,99486.88
2023-05-01T05:07:51.100Z,99483.81
2023-05-01T05:10:36.653Z,99491.42
2023-05-01T05:13:25.922Z,99491.84
2023-05-01T05:16:04.200Z,99490.24
2023-05-01T05:18:31.689Z,99491.08
2023-05-01T05:20:58.688Z,99494.05
2023-05-01T05:23:25.819Z,99498.81
2023-05-01T05:25:52.485Z,99499.05
2023-05-01T05:28:19.535Z,99499.38
2023-05-01T05:30:47.268Z,99501.48
2023-05-01T05:33:15.948Z,99511.36
2023-05-01T05:35:43.324Z,99505.67
2023-05-01T05:38:10.446Z,99511.14
2023-05-01T05:40:38.405Z,99517.92
2023-05-01T05:43:05.381Z,99517.95
2023-05-01T05:45:35.692Z,99523.45
2023-05-01T05:48:03.235Z,99519.81
2023-05-01T05:50:31.458Z,99521.20
2023-05-01T05:52:58.505Z,99524.16
2023-05-01T05:55:25.870Z,99527.55
2023-05-01T05:58:01.658Z,99525.21
2023-05-01T06:00:29.745Z,99530.93
2023-05-01T06:02:57.475Z,99536.73
2023-05-01T06:05:26.866Z,99533.48
2023-05-01T06:07:54.853Z,99530.58
2023-05-01T06:10:21.539Z,99532.14
2023-05-01T06:12:48.641Z,99539.67
2023-05-01T06:15:19.029Z,99532.71
2023-05-01T06:17:51.736Z,99534.73
2023-05-01T06:20:18.620Z,99543.30
2023-05-01T06:22:46.813Z,99542.26
2023-05-01T06:25:27.964Z,99548.77
2023-05-01T06:27:54.610Z,99543.81
2023-05-01T06:30:22.473Z,99549.17
2023-05-01T06:32:50.048Z,99551.05
2023-05-01T06:35:17.194Z,99553.40
2023-05-01T06:37:43.907Z,99551.58
2023-05-01T06:40:11.556Z,99553.95
2023-05-01T06:42:39.098Z,99556.83
2023-05-01T06:45:09.252Z,99563.88
2023-05-01T06:47:36.183Z,99559.98
2023-05-01T06:50:05.727Z,99562.81
2023-05-01T06:52:33.504Z,99568.70
2023-05-01T06:55:00.356Z,99566.09
2023-05-01T06:57:27.124Z,99569.27
2023-05-01T06:59:54.433Z,99568.09
2023-05-01T07:02:21.642Z,99574.23
2023-05-01T07:04:48.549Z,99571.48
2023-05-01T07:07:15.192Z,99569.25
2023-05-01T07:09:41.975Z,99569.21
2023-05-01T07:12:08.784Z,99571.20
2023-05-01T07:14:35.972Z,99574.47
2023-05-01T07:17:03.450Z,99577.86
2023-05-01T07:19:30.316Z,99580.48
2023-05-01T07:21:57.207Z,99590.15
2023-05-01T07:24:23.884Z,99590.63
2023-05-01T07:26:51.759Z,99601.23
2023-05-01T07:29:18.477Z,99594.03
2023-05-01T07:31:46.318Z,99591.91
2023-05-01T07:34:13.542Z,99594.13
2023-05-01T07:36:40.274Z,99602.05
2023-05-01T07:39:07.435Z,99609.25
2023-05-01T07:41:34.172Z,99609.65
2023-05-01T07:44:01.221Z,99607.50
2023-05-01T07:46:27.997Z,99609.09
2023-05-01T07:48:54.939Z,99609.10
2023-05-01T07:51:21.737Z,99612.35
2023-05-01T07:53:49.416Z,99618.15
2023-05-01T07:56:16.489Z,99616.45
2023-05-01T07:58:44.055Z,99621.14
2023-05-01T08:01:10.902Z,99615.92
2023-05-01T08:03:37.976Z,99616.85
2023-05-01T08:06:05.848Z,99621.39
2023-05-01T08:08:32.759Z,99633.43
2023-05-01T08:10:59.740Z,99622.64
2023-05-01T08:13:26.460Z,99625.92
2023-05-01T08:15:53.284Z,99625.01
2023-05-01T08:18:21.219Z,99625.02
2023-05-01T08:20:48.449Z,99627.65
2023-05-01T08:23:18.858Z,99622.36
2023-05-01T08:25:51.186Z,99623.13
2023-05-01T08:28:18.539Z,99619.77
2023-05-01T08:30:45.991Z,99621.58
2023-05-01T08:33:12.745Z,99618.73
2023-05-01T08:35:39.680Z,99616.25
2023-05-01T08:38:06.353Z,99611.20
2023-05-01T08:40:34.616Z,99624.52
2023-05-01T08:43:02.520Z,99612.35
2023-05-01T08:45:31.191Z,99620.04
2023-05-01T08:47:58.134Z,99621.00
2023-05-01T08:50:24.864Z,99616.48
2023-05-01T08:52:52.811Z,99624.34
2023-05-01T08:55:19.686Z,99627.02
2023-05-01T08:57:46.961Z,99618.66
2023-05-01T09:00:20.856Z,99629.36
2023-05-01T09:02:48.623Z,99628.80
2023-05-01T09:05:16.158Z,99625.87
2023-05-01T09:07:43.864Z,99631.25
2023-05-01T09:10:11.958Z,99637.70
2023-05-01T09:12:38.943Z,99632.48
2023-05-01T09:15:07.417Z,99635.27
2023-05-01T09:17:34.351Z,99640.38
2023-05-01T09:20:06.376Z,99638.95
2023-05-01T09:22:33.567Z,99644.59
2023-05-01T09:25:00.777Z,99648.20
2023-05-01T09:27:27.798Z,99652.88
2023-05-01T09:29:54.856Z,99643.11
2023-05-01T09:32:28.381Z,99644.99
2023-05-01T09:34:56.458Z,99641.27
2023-05-01T09:37:29.765Z,99644.06
2023-05-01T09:40:13.283Z,99641.99
2023-05-01T09:42:41.769Z,99651.12
2023-05-01T09:45:15.002Z,99653.39
2023-05-01T09:47:44.059Z,99652.86
2023-05-01T09:50:13.780Z,99648.90
2023-05-01T09:52:40.501Z,99648.36
2023-05-01T09:55:17.334Z,99643.55
2023-05-01T09:57:45.295Z,99649.90
2023-05-01T10:00:14.605Z,99650.54
2023-05-01T10:02:42.804Z,99650.86
2023-05-01T10:05:10.236Z,99654.39
2023-05-01T10:07:37.422Z,99652.83
2023-05-01T10:10:18.056Z,99654.60
2023-05-01T10:12:44.894Z,99653.33
2023-05-01T10:15:24.095Z,99653.20
2023-05-01T10:17:52.595Z,99660.33
2023-05-01T10:20:19.985Z,99651.86
2023-05-01T10:22:46.788Z,99659.71
2023-05-01T10:25:13.689Z,99659.08
2023-05-01T10:27:41.258Z,99656.25
2023-05-01T10:30:08.831Z,99660.02
2023-05-01T10:34:32.027Z,99664.71
2023-05-01T10:37:04.713Z,99660.88
2023-05-01T10:39:36.264Z,99666.20
2023-05-01T10:42:04.769Z,99669.17
2023-05-01T10:44:32.013Z,99670.09
2023-05-01T10:46:58.781Z,99665.11
2023-05-01T10:49:25.690Z,99666.93
2023-05-01T10:51:58.660Z,99667.79
2023-05-01T10:54:26.939Z,99671.22
2023-05-01T10:56:58.740Z,99674.39
2023-05-01T10:59:26.091Z,99677.12
2023-05-01T11:01:53.221Z,99671.93
2023-05-01T11:04:27.148Z,99669.32
2023-05-01T11:07:07.522Z,99670.92
2023-05-01T11:09:39.134Z,99674.14
2023-05-01T11:12:06.645Z,99667.60
2023-05-01T11:14:52.341Z,99672.29
2023-05-01T11:17:49.885Z,99669.38
2023-05-01T11:20:25.996Z,99666.50
2023-05-01T11:22:53.676Z,99663.61
2023-05-01T11:25:21.458Z,99672.27
2023-05-01T11:27:53.011Z,99677.23
2023-05-01T11:30:20.085Z,99676.67
2023-05-01T11:32:47.933Z,99669.86
2023-05-01T11:35:22.134Z,99672.58
2023-05-01T11:37:49.089Z,99677.91
2023-05-01T11:40:26.273Z,99674.83
2023-05-01T11:43:07.107Z,99670.56
2023-05-01T11:45:34.975Z,99677.32
2023-05-01T11:48:04.376Z,99672.38
2023-05-01T11:50:32.765Z,99671.81
2023-05-01T11:52:59.527Z,99664.17
2023-05-01T11:55:33.320Z,99677.74
2023-05-01T11:58:00.048Z,99682.98
2023-05-01T12:00:31.952Z,99677.70
2023-05-01T12:03:03.076Z,99677.05
2023-05-01T12:05:31.596Z,99681.87
2023-05-01T12:08:21.870Z,99675.90
2023-05-01T12:10:57.602Z,99680.29
2023-05-01T12:13:24.658Z,99682.11
2023-05-01T12:15:53.014Z,99676.88
2023-05-01T12:18:21.404Z,99682.33
2023-05-01T12:20:50.371Z,99686.37
2023-05-01T12:23:19.600Z,99686.19
2023-05-01T12:25:46.657Z,99684.16
2023-05-01T12:28:14.275Z,99692.27
2023-05-01T12:30:41.783Z,99683.67
2023-05-01T12:33:12.849Z,99688.04
2023-05-01T12:35:40.417Z,99687.79
2023-05-01T12:38:20.736Z,99696.42
2023-05-01T12:40:54.904Z,99694.04
2023-05-01T12:43:22.696Z,99686.73
2023-05-01T12:45:53.404Z,99684.17
2023-05-01T12:48:20.196Z,99688.69
2023-05-01T12:50:48.081Z,99695.17
2023-05-01T12:53:15.559Z,99690.55
2023-05-01T12:55:45.753Z,99689.48
2023-05-01T12:58:12.869Z,99687.40
2023-05-01T13:00:50.041Z,99687.45
2023-05-01T13:03:21.910Z,99688.10
2023-05-01T13:06:02.164Z,99697.20
2023-05-01T13:08:30.075Z,99691.23
2023-05-01T13:10:58.520Z,99695.34
2023-05-01T13:13:26.888Z,99699.63
2023-05-01T13:15:53.855Z,99701.45
2023-05-01T13:18:20.688Z,99698.11
2023-05-01T13:20:47.443Z,99700.44
2023-05-01T13:23:14.188Z,99697.73
2023-05-01T13:25:40.866Z,99704.34
2023-05-01T13:28:07.905Z,99707.12
2023-05-01T13:30:34.885Z,99708.30
2023-05-01T13:33:02.010Z,99709.13
2023-05-01T13:35:28.905Z,99704.70
2023-05-01T13:37:55.644Z,99705.48
2023-05-01T13:40:22.310Z,99708.15
2023-05-01T13:42:53.795Z,99714.39
2023-05-01T13:45:23.612Z,99709.55
2023-05-01T13:47:51.891Z,99714.16
2023-05-01T13:50:19.033Z,99707.73
2023-05-01T13:52:45.980Z,99716.69
2023-05-01T13:55:13.174Z,99717.91
2023-05-01T13:57:41.610Z,99719.84
2023-05-01T14:00:10.551Z,99719.85
2023-05-01T14:02:44.729Z,99717.48
2023-05-01T14:05:11.897Z,99722.54
2023-05-01T14:07:55.207Z,99725.48
2023-05-01T14:10:22.070Z,99726.31
2023-05-01T14:12:48.813Z,99724.36
2023-05-01T14:15:15.474Z,99725.36
2023-05-01T14:17:42.311Z,99727.48
2023-05-01T14:20:09.392Z,99729.39
2023-05-01T14:22:43.348Z,99736.27
2023-05-01T14:25:24.416Z,99741.48
2023-05-01T14:27:52.006Z,99744.02
2023-05-01T14:30:33.758Z,99746.59
2023-05-01T14:33:11.808Z,99746.58
2023-05-01T14:35:49.936Z,99748.48
2023-05-01T14:38:17.877Z,99746.13
2023-05-01T14:40:44.939Z,99752.17
2023-05-01T14:43:18.738Z,99755.77
2023-05-01T14:45:46.622Z,99760.27
2023-05-01T14:48:26.635Z,99757.55
2023-05-01T14:50:55.132Z,99762.11
2023-05-01T14:53:23.260Z,99757.87
2023-05-01T14:55:54.217Z,99758.56
2023-05-01T14:58:21.126Z,99759.11
2023-05-01T15:00:47.817Z,99761.34
2023-05-01T15:03:14.643Z,99764.20
2023-05-01T15:05:41.909Z,99769.34
2023-05-01T15:08:09.183Z,99769.77
2023-05-01T15:10:36.084Z,99773.23
2023-05-01T15:13:02.819Z,99775.27
2023-05-01T15:15:29.886Z,99781.16
2023-05-01T15:17:56.776Z,99781.73
2023-05-01T15:20:23.692Z,99785.88
2023-05-01T15:22:50.395Z,99785.77
2023-05-01T15:25:17.168Z,99784.02
2023-05-01T15:27:45.781Z,99783.81
2023-05-01T15:30:12.891Z,99786.58
2023-05-01T15:32:39.742Z,99785.41
2023-05-01T15:35:07.138Z,99788.30
2023-05-01T15:37:33.909Z,99789.66
2023-05-01T15:40:00.716Z,99794.73
2023-05-01T15:42:27.450Z,99798.63
2023-05-01T15:44:54.077Z,99799.59
2023-05-01T15:47:20.734Z,99801.60
2023-05-01T15:49:47.580Z,99802.91
2023-05-01T15:52:14.359Z,99814.41
2023-05-01T15:54:41.298Z,99811.36
2023-05-01T15:57:09.386Z,99819.05
2023-05-01T15:59:36.239Z,99819.57
2023-05-01T16:02:02.875Z,99822.88
2023-05-01T16:04:29.618Z,99826.70
2023-05-01T16:06:56.309Z,99833.77
2023-05-01T16:09:25.004Z,99835.45
2023-05-01T16:11:51.697Z,99840.89
2023-05-01T16:14:18.444Z,99844.38
2023-05-01T16:16:45.223Z,99851.58
2023-05-01T16:19:14.912Z,99859.04
2023-05-01T16:21:41.589Z,99863.86
2023-05-01T16:24:08.392Z,99868.88
2023-05-01T16:26:35.257Z,99870.38
2023-05-01T16:29:05.386Z,99876.20
2023-05-01T16:31:38.855Z,99879.98
2023-05-01T16:34:13.097Z,99885.12
2023-05-01T16:36:43.064Z,99892.35
2023-05-01T16:39:14.718Z,99895.97
2023-05-01T16:41:46.231Z,99900.52
2023-05-01T16:44:13.508Z,99904.70
2023-05-01T16:46:41.992Z,99908.23
2023-05-01T16:49:13.676Z,99914.23
2023-05-01T16:51:41.790Z,99918.27
2023-05-01T16:54:08.575Z,99925.77
2023-05-01T16:56:35.382Z,99932.36
2023-05-01T16:59:02.057Z,99935.09
2023-05-01T17:01:28.763Z,99940.64
2023-05-01T17:03:55.633Z,99948.63
2023-05-01T17:06:22.609Z,99947.61
2023-05-01T17:08:49.593Z,99947.54
2023-05-01T17:11:16.510Z,99950.35
2023-05-01T17:13:43.267Z,99955.99
2023-05-01T17:16:10.606Z,99961.65
2023-05-01T17:18:37.375Z,99967.17
2023-05-01T17:21:04.054Z,99967.76
2023-05-01T17:23:30.918Z,99972.80
2023-05-01T17:25:57.665Z,99977.52
2023-05-01T17:28:24.634Z,99977.84
2023-05-01T17:30:51.800Z,99985.00
2023-05-01T17:33:18.520Z,99988.11
2023-05-01T17:35:45.662Z,99993.07
2023-05-01T17:38:12.982Z,99995.66
2023-05-01T17:40:39.786Z,100002.05
2023-05-01T17:43:06.543Z,100005.02
2023-05-01T17:45:33.276Z,100011.79
2023-05-01T17:48:00.929Z,100010.67
2023-05-01T17:50:27.847Z,100017.63
2023-05-01T17:52:54.516Z,100018.58
2023-05-01T17:55:21.237Z,100024.05
2023-05-01T17:57:48.037Z,100026.45
2023-05-01T18:00:16.556Z,100036.97
2023-05-01T18:02:45.084Z,100045.34
2023-05-01T18:05:12.760Z,100047.54
2023-05-01T18:07:39.520Z,100052.92
2023-05-01T18:10:07.188Z,100060.22
2023-05-01T18:12:33.906Z,100065.05
2023-05-01T18:15:00.657Z,100067.39
2023-05-01T18:17:27.684Z,100069.82
2023-05-01T18:19:54.967Z,100075.31
2023-05-01T18:22:21.770Z,100079.03
2023-05-01T18:24:48.675Z,100089.52
2023-05-01T18:27:15.446Z,100092.70
2023-05-01T18:29:42.089Z,100094.67
2023-05-01T18:32:10.672Z,100098.33
2023-05-01T18:34:39.686Z,100103.10
2023-05-01T18:37:06.632Z,100106.56
2023-05-01T18:39:33.289Z,100110.00
2023-05-01T18:42:00.117Z,100112.10
2023-05-01T18:44:26.956Z,100117.90
2023-05-01T18:46:53.654Z,100120.24
2023-05-01T18:49:23.722Z,100121.57
2023-05-01T18:51:51.286Z,100127.38
2023-05-01T18:54:18.037Z,100131.91
2023-05-01T18:56:44.782Z,100134.93
2023-05-01T18:59:11.472Z,100141.55
2023-05-01T19:01:38.304Z,100146.04
2023-05-01T19:04:06.641Z,100145.98
2023-05-01T19:06:33.739Z,100148.88
2023-05-01T19:09:00.604Z,100148.88
2023-05-01T19:11:31.577Z,100150.11
2023-05-01T19:13:58.537Z,100154.04
2023-05-01T19:16:26.360Z,100153.58
2023-05-01T19:18:53.116Z,100156.32
2023-05-01T19:21:19.856Z,100162.98
2023-05-01T19:23:47.364Z,100165.73
2023-05-01T19:26:14.027Z,100168.92
2023-05-01T19:28:41.546Z,100169.08
2023-05-01T19:31:09.292Z,100171.90
2023-05-01T19:33:36.138Z,100173.21
2023-05-01T19:36:02.939Z,100175.86
2023-05-01T19:38:29.704Z,100174.97
2023-05-01T19:40:56.754Z,100181.44
2023-05-01T19:43:23.418Z,100185.07
2023-05-01T19:45:50.127Z,100184.46
2023-05-01T19:48:16.867Z,100187.42
2023-05-01T19:50:50.687Z,100194.80
2023-05-01T19:53:17.979Z,100196.66
2023-05-01T19:55:46.360Z,100199.63
2023-05-01T19:58:15.125Z,100201.86
2023-05-01T20:00:42.028Z,100205.14
2023-05-01T20:03:10.910Z,100207.21
2023-05-01T20:05:38.029Z,100215.74
2023-05-01T20:08:05.184Z,100214.63
2023-05-01T20:10:32.836Z,100219.54
2023-05-01T20:13:00.127Z,100221.11
2023-05-01T20:15:26.948Z,100222.84
2023-05-01T20:17:53.774Z,100224.04
2023-05-01T20:20:20.597Z,100228.05
2023-05-01T20:22:47.315Z,100225.52
2023-05-01T20:25:14.199Z,100225.32
2023-05-01T20:27:41.440Z,100230.63
2023-05-01T20:30:10.928Z,100230.05
2023-05-01T20:32:42.445Z,100235.70
2023-05-01T20:35:10.950Z,100239.09
2023-05-01T20:37:37.699Z,100238.20
2023-05-01T20:40:05.639Z,100240.80
2023-05-01T20:42:32.414Z,100245.52
2023-05-01T20:44:59.147Z,100242.75
2023-05-01T20:47:26.011Z,100242.16
2023-05-01T20:49:52.737Z,100246.02
2023-05-01T20:52:20.205Z,100246.13
2023-05-01T20:54:46.887Z,100243.84
2023-05-01T20:57:16.711Z,100244.95
2023-05-01T20:59:48.018Z,100245.69
2023-05-01T21:02:18.016Z,100244.64
2023-05-01T21:04:46.318Z,100253.91
2023-05-01T21:07:12.981Z,100254.52
2023-05-01T21:09:46.007Z,100257.23
2023-05-01T21:12:13.238Z,100261.90
2023-05-01T21:14:40.664Z,100260.34
2023-05-01T21:17:10.868Z,100268.27
2023-05-01T21:19:45.029Z,100270.84
2023-05-01T21:22:20.568Z,100273.98
2023-05-01T21:24:52.019Z,100278.41
2023-05-01T21:27:18.701Z,100279.98
2023-05-01T21:29:57.050Z,100279.97
2023-05-01T21:32:32.400Z,100284.77
2023-05-01T21:35:02.656Z,100287.31
2023-05-01T21:37:29.668Z,100292.70
2023-05-01T21:40:03.615Z,100291.54
2023-05-01T21:42:37.934Z,100297.31
2023-05-01T21:45:11.023Z,100295.45
2023-05-01T21:47:39.371Z,100298.14
2023-05-01T21:50:07.253Z,100299.62
2023-05-01T21:52:34.906Z,100303.58
2023-05-01T21:55:03.675Z,100307.89
2023-05-01T21:57:31.685Z,100309.36
2023-05-01T22:00:01.209Z,100312.05
2023-05-01T22:02:38.517Z,100316.52
2023-05-01T22:05:06.277Z,100319.78
2023-05-01T22:07:33.418Z,100323.02
2023-05-01T22:10:01.384Z,100323.56
2023-05-01T22:12:28.464Z,100322.52
2023-05-01T22:14:55.403Z,100325.23
2023-05-01T22:17:25.132Z,100325.66
2023-05-01T22:19:52.076Z,100325.41
2023-05-01T22:22:19.420Z,100329.97
2023-05-01T22:24:46.072Z,100335.24
2023-05-01T22:27:12.705Z,100337.98
2023-05-01T22:29:39.448Z,100337.34
2023-05-01T22:32:06.235Z,100341.49
2023-05-01T22:34:33.050Z,100342.41
2023-05-01T22:36:59.735Z,100342.45
2023-05-01T22:39:26.571Z,100340.91
2023-05-01T22:41:53.290Z,100341.12
2023-05-01T22:44:22.267Z,100346.31
2023-05-01T22:46:49.142Z,100347.05
2023-05-01T22:51:23.936Z,100350.19
2023-05-01T22:53:50.854Z,100347.63
2023-05-01T22:56:17.485Z,100350.38
2023-05-01T22:58:44.157Z,100354.34
2023-05-01T23:01:11.095Z,100353.84
2023-05-01T23:03:39.010Z,100357.80
2023-05-01T23:06:09.205Z,100352.70
2023-05-01T23:08:36.043Z,100352.38
2023-05-01T23:11:03.063Z,100357.94
2023-05-01T23:13:32.236Z,100362.42
2023-05-01T23:15:59.758Z,100365.66
2023-05-01T23:18:36.505Z,100364.62
2023-05-01T23:21:03.470Z,100364.63
2023-05-01T23:23:30.760Z,100361.07
2023-05-01T23:25:57.794Z,100358.92
2023-05-01T23:28:26.002Z,100358.39
2023-05-01T23:31:00.716Z,100358.38
2023-05-01T23:33:28.049Z,100359.08
2023-05-01T23:35:54.717Z,100358.20
2023-05-01T23:38:21.449Z,100360.92
2023-05-01T23:40:49.757Z,100365.58
2023-05-01T23:43:16.980Z,100365.44
2023-05-01T23:45:43.920Z,100368.84
2023-05-01T23:48:10.810Z,100369.27
2023-05-01T23:50:37.577Z,100367.52
2023-05-01T23:53:06.405Z,100372.89
2023-05-01T23:55:37.070Z,100377.02
2023-05-01T23:58:04.739Z,100376.38
